Egg Harbor, New Jersey
Current Conditions -  °F | °C
As of 9:54 PM on Sunday 23 Nov 2014 (Local Time) from KACY Reporting Station
Overcast Overcast  
Wind Chill: 58°   Ceiling: 4500
Heat Index: 58°   Visibility: 10mi
Dew Point: 51°   Wind: 10mph
Humidity: 78%   Direction: 150°SSE
Pressure: 30.04"   Gusts: NA
Location:  39.5436°N, 74.5919°W
Report Text: KACY 240254Z 15009KT 10SM OVC045 14/11 A3004 RMK AO2 SLP171 T01440106 56030
Loading
Personal Weather Stations






























Interactive Weather Map New forecast layout! Learn more

10-Day Weather Forecast

Advertisements
Track Severe Weather on mobile